Big Bear Station Historical Data
Daily Summary for February 13, 2019 Units:  English    Metric   Both
Next Day »
Daily Weekly Monthly Yearly Custom
  High: Low: Average:
Temperature: 44.1 °F 32.4 °F 37.7 °F
Dew Point: 39.4 °F -1.7 °F 19.2 °F
Humidity: 99% 17% 58%
Wind Speed: 7.8mph 0.0mph 2.2mph
Wind Gust: -999.0mph - -
Wind- - SW
Pressure: 23.44 in 23.34 in -
Precipitation: 1.26 in    
Historical Graphs
 
 
Tabular Data for February 13, 2019
Time Temperature Dew Point Pressure Wind Wind Speed Wind Gust Humidity Rainfall Rate (Hourly)
00:02 35.8 °F -0.4 °F 23.43 in South 3.2 mph -999.0 mph 21% 0.00 in
00:17 35.4 °F 0.3 °F 23.44 in NE 7.8 mph -999.0 mph 22% 0.00 in
00:32 35.2 °F 1.1 °F 23.43 in WNW 2.7 mph -999.0 mph 23% 0.00 in
00:47 35.1 °F 1.9 °F 23.44 in Calm   -999.0 mph 24% 0.00 in
01:02 35.1 °F 1.0 °F 23.43 in East 2.2 mph -999.0 mph 23% 0.00 in
01:18 35.2 °F 0.1 °F 23.42 in SSW 6.8 mph -999.0 mph 22% 0.00 in
01:33 35.4 °F 3.0 °F 23.42 in West 2.7 mph -999.0 mph 25% 0.00 in
01:49 35.8 °F 1.6 °F 23.42 in NW 3.7 mph -999.0 mph 23% 0.00 in
02:04 35.6 °F 0.4 °F 23.41 in WNW 1.7 mph -999.0 mph 22% 0.00 in
02:19 35.8 °F 0.6 °F 23.40 in NNE 3.2 mph -999.0 mph 22% 0.00 in
02:35 36.0 °F 0.8 °F 23.40 in SSW 2.2 mph -999.0 mph 22% 0.00 in
02:50 36.7 °F 1.4 °F 23.39 in SW 4.7 mph -999.0 mph 22% 0.00 in
03:05 36.9 °F 1.5 °F 23.37 in NE 4.7 mph -999.0 mph 22% 0.00 in
03:20 37.2 °F 0.8 °F 23.37 in ESE 5.3 mph -999.0 mph 21% 0.00 in
03:35 37.2 °F 1.8 °F 23.37 in South 2.7 mph -999.0 mph 22% 0.00 in
03:51 37.2 °F 1.8 °F 23.37 in SSW 3.2 mph -999.0 mph 22% 0.00 in
04:06 37.8 °F 0.3 °F 23.37 in WSW 4.7 mph -999.0 mph 20% 0.00 in
04:21 37.4 °F -0.1 °F 23.37 in SSW 2.7 mph -999.0 mph 20% 0.00 in
04:36 37.2 °F -0.2 °F 23.37 in South 2.7 mph -999.0 mph 20% 0.00 in
04:52 37.0 °F 0.6 °F 23.36 in West 4.2 mph -999.0 mph 21% 0.00 in
05:07 37.2 °F -0.2 °F 23.37 in SE 6.3 mph -999.0 mph 20% 0.00 in
05:22 36.7 °F 1.4 °F 23.38 in Calm   -999.0 mph 22% 0.00 in
05:37 36.3 °F 1.0 °F 23.36 in South 3.2 mph -999.0 mph 22% 0.00 in
05:53 35.8 °F 2.5 °F 23.36 in SW 3.7 mph -999.0 mph 24% 0.00 in
06:08 35.4 °F 2.1 °F 23.36 in WSW 2.7 mph -999.0 mph 24% 0.00 in
06:23 34.9 °F 3.4 °F 23.36 in South 3.2 mph -999.0 mph 26% 0.00 in
06:39 34.7 °F 3.3 °F 23.36 in SW 4.2 mph -999.0 mph 26% 0.00 in
06:54 34.9 °F 1.7 °F 23.36 in SW 3.7 mph -999.0 mph 24% 0.00 in
07:09 35.2 °F 2.0 °F 23.35 in North 2.2 mph -999.0 mph 24% 0.00 in
07:24 36.0 °F -0.2 °F 23.36 in South 5.3 mph -999.0 mph 21% 0.00 in
07:39 36.9 °F -0.5 °F 23.37 in ESE 3.2 mph -999.0 mph 20% 0.00 in
07:55 36.5 °F -0.8 °F 23.38 in West 4.2 mph -999.0 mph 20% 0.00 in
08:10 36.7 °F 4.1 °F 23.37 in WSW 2.2 mph -999.0 mph 25% 0.00 in
08:25 38.3 °F -1.6 °F 23.36 in SSW 5.8 mph -999.0 mph 18% 0.00 in
08:40 39.6 °F -1.7 °F 23.36 in South 4.7 mph -999.0 mph 17% 0.00 in
08:55 40.8 °F 1.7 °F 23.37 in Calm   -999.0 mph 19% 0.00 in
09:11 40.5 °F 3.6 °F 23.39 in West 6.3 mph -999.0 mph 21% 0.00 in
09:26 40.5 °F 4.6 °F 23.39 in WNW 1.7 mph -999.0 mph 22% 0.00 in
09:41 42.3 °F 6.1 °F 23.38 in SSW 1.1 mph -999.0 mph 22% 0.00 in
09:57 42.4 °F 1.8 °F 23.38 in NW 4.7 mph -999.0 mph 18% 0.00 in
10:12 43.2 °F 2.5 °F 23.38 in ESE 3.2 mph -999.0 mph 18% 0.00 in
10:27 43.0 °F 3.5 °F 23.38 in NNW 1.7 mph -999.0 mph 19% 0.00 in
10:42 44.1 °F 7.6 °F 23.37 in Calm   -999.0 mph 22% 0.00 in
10:57 43.0 °F 6.7 °F 23.37 in WNW 4.2 mph -999.0 mph 22% 0.00 in
11:13 42.1 °F 9.6 °F 23.37 in NNW 3.7 mph -999.0 mph 26% 0.00 in
11:28 41.2 °F 11.3 °F 23.37 in ENE 4.2 mph -999.0 mph 29% 0.00 in
11:43 39.6 °F 16.1 °F 23.36 in NNW 3.7 mph -999.0 mph 38% 0.00 in
11:59 37.2 °F 20.7 °F 23.36 in NNE 7.3 mph -999.0 mph 51% 0.00 in
12:14 36.1 °F 25.1 °F 23.37 in WNW 4.2 mph -999.0 mph 64% 0.00 in
12:29 34.3 °F 26.9 °F 23.36 in NW 7.3 mph -999.0 mph 74% 0.00 in
12:44 33.1 °F 27.9 °F 23.36 in NNW 5.3 mph -999.0 mph 81% 0.00 in
13:00 33.4 °F 28.8 °F 23.37 in NW 4.7 mph -999.0 mph 83% 0.00 in
13:16 32.5 °F 28.5 °F 23.35 in NW 3.7 mph -999.0 mph 85% 0.00 in
13:31 32.4 °F 29.0 °F 23.36 in Calm   -999.0 mph 87% 0.00 in
13:46 33.6 °F 30.4 °F 23.35 in Calm   -999.0 mph 88% 0.00 in
14:01 34.2 °F 31.0 °F 23.34 in Calm   -999.0 mph 88% 0.00 in
14:17 35.1 °F 32.2 °F 23.34 in Calm   -999.0 mph 89% 0.00 in
14:32 35.8 °F 33.4 °F 23.34 in Calm   -999.0 mph 91% 0.00 in
14:47 36.7 °F 34.3 °F 23.34 in Calm   -999.0 mph 91% 0.00 in
15:02 37.2 °F 35.4 °F 23.35 in Calm   -999.0 mph 93% 0.00 in
15:18 37.8 °F 36.0 °F 23.35 in Calm   -999.0 mph 93% 0.00 in
15:33 38.1 °F 36.3 °F 23.35 in Calm   -999.0 mph 93% 0.00 in
15:48 38.5 °F 36.9 °F 23.35 in Calm   -999.0 mph 94% 0.00 in
16:03 38.8 °F 37.2 °F 23.36 in Calm   -999.0 mph 94% 0.00 in
16:18 39.2 °F 37.6 °F 23.36 in Calm   -999.0 mph 94% 0.00 in
16:34 39.0 °F 37.4 °F 23.36 in Calm   -999.0 mph 94% 0.00 in
16:49 38.7 °F 37.4 °F 23.37 in Calm   -999.0 mph 95% 0.00 in
17:04 38.1 °F 37.1 °F 23.37 in Calm   -999.0 mph 96% 0.00 in
17:19 38.5 °F 37.5 °F 23.36 in Calm   -999.0 mph 96% 0.00 in
17:34 38.3 °F 37.5 °F 23.35 in Calm   -999.0 mph 97% 0.00 in
17:50 37.9 °F 37.1 °F 23.35 in Calm   -999.0 mph 97% 0.00 in
18:05 38.3 °F 37.8 °F 23.36 in SSW 3.2 mph -999.0 mph 98% 0.00 in
18:20 39.0 °F 38.5 °F 23.35 in WNW 3.7 mph -999.0 mph 98% 0.00 in
18:36 39.2 °F 38.7 °F 23.36 in Calm   -999.0 mph 98% 0.00 in
18:51 39.0 °F 38.5 °F 23.38 in NNW 2.7 mph -999.0 mph 98% 0.00 in
19:07 38.8 °F 38.3 °F 23.38 in North 1.1 mph -999.0 mph 98% 0.00 in
19:22 38.7 °F 38.2 °F 23.38 in Calm   -999.0 mph 98% 0.00 in
19:37 37.9 °F 37.4 °F 23.38 in ESE 2.7 mph -999.0 mph 98% 0.00 in
19:52 38.5 °F 38.0 °F 23.37 in Calm   -999.0 mph 98% 0.00 in
20:08 38.7 °F 38.4 °F 23.38 in Calm   -999.0 mph 99% 0.00 in
20:23 38.1 °F 37.8 °F 23.38 in Calm   -999.0 mph 99% 0.00 in
20:38 38.3 °F 38.0 °F 23.40 in Calm   -999.0 mph 99% 0.00 in
20:53 38.7 °F 38.4 °F 23.39 in Calm   -999.0 mph 99% 0.00 in
21:09 38.7 °F 38.4 °F 23.38 in North 1.1 mph -999.0 mph 99% 0.00 in
21:24 38.7 °F 38.4 °F 23.38 in Calm   -999.0 mph 99% 0.00 in
21:40 38.5 °F 38.2 °F 23.39 in Calm   -999.0 mph 99% 0.00 in
21:55 38.5 °F 38.2 °F 23.39 in Calm   -999.0 mph 99% 0.00 in
22:10 38.7 °F 38.4 °F 23.38 in Calm   -999.0 mph 99% 0.00 in
22:25 39.6 °F 39.3 °F 23.37 in Calm   -999.0 mph 99% 0.00 in
22:40 39.7 °F 39.4 °F 23.38 in Calm   -999.0 mph 99% 0.00 in
22:56 39.7 °F 39.4 °F 23.37 in Calm   -999.0 mph 99% 0.00 in
23:11 39.4 °F 39.1 °F 23.38 in Calm   -999.0 mph 99% 0.00 in
23:26 39.2 °F 38.9 °F 23.37 in Calm   -999.0 mph 99% 0.00 in
23:41 39.2 °F 38.9 °F 23.37 in Calm   -999.0 mph 99% 0.00 in
23:56 39.2 °F 38.9 °F 23.37 in Calm   -999.0 mph 99% 0.00 in
Big Bear CA Weather